Time;durP1;ratioP1;P1;durP2;ratioP2;P2;SDS_P1;SDS_P2;PMS_P1;PMS_P2;Temp;Humidity;BMP_temperature;BMP_pressure;BME280_temperature;BME280_humidity;BME280_pressure;Samples;Min_cycle;Max_cycle;Signal;HPM_P1;HPM_P2
2022/01/31 00:00:17;;;;;;;14.18;5.20;;;;;;;7.42;48.39;100971.59;686538;28;1157;-90
2022/01/31 00:00:38;;;;;;;16.52;5.38;;;;;;;7.44;48.08;100966.50;693664;28;1393;-89
2022/01/31 00:00:59;;;;;;;13.65;4.80;;;;;;;7.38;48.46;100967.13;687046;28;1264;-90
2022/01/31 00:01:19;;;;;;;12.82;5.10;;;;;;;7.44;48.60;100969.09;689149;28;1343;-89
2022/01/31 00:01:40;;;;;;;12.57;5.20;;;;;;;7.40;48.51;100975.84;685299;28;1184;-90
2022/01/31 00:02:00;;;;;;;14.55;5.78;;;;;;;7.44;48.69;100979.47;688330;28;783;-90
2022/01/31 00:02:21;;;;;;;13.50;5.40;;;;;;;7.41;48.92;100969.84;687942;28;1826;-91
2022/01/31 00:02:43;;;;;;;12.32;5.28;;;;;;;7.40;48.67;100974.16;685611;28;1173;-90
2022/01/31 00:03:04;;;;;;;10.00;4.68;;;;;;;7.40;48.41;100979.34;688015;28;1253;-89
2022/01/31 00:03:25;;;;;;;10.10;4.68;;;;;;;7.42;48.78;100981.13;693157;28;1277;-91
2022/01/31 00:03:45;;;;;;;12.73;5.10;;;;;;;7.40;48.80;100974.16;693605;28;1021;-89
2022/01/31 00:04:12;;;;;;;15.63;5.70;;;;;;;7.47;48.56;100970.13;691038;28;1151;-90
2022/01/31 00:04:33;;;;;;;15.07;5.85;;;;;;;7.47;48.23;100972.72;682950;28;1232;-90
2022/01/31 00:04:53;;;;;;;13.48;5.38;;;;;;;7.56;48.61;100984.31;688333;28;1234;-89
2022/01/31 00:05:14;;;;;;;13.95;5.70;;;;;;;7.64;48.18;100988.13;687113;28;1256;-90
2022/01/31 00:05:35;;;;;;;17.17;5.88;;;;;;;7.54;48.57;100982.56;691198;28;1169;-90
2022/01/31 00:05:55;;;;;;;18.53;5.77;;;;;;;7.52;48.08;100975.50;686353;28;1320;-90
2022/01/31 00:06:16;;;;;;;18.42;5.40;;;;;;;7.56;48.28;100979.13;685480;28;1133;-90
2022/01/31 00:06:37;;;;;;;14.27;4.80;;;;;;;7.54;48.39;100981.66;682995;29;1505;-91
2022/01/31 00:06:57;;;;;;;14.57;4.72;;;;;;;7.64;48.06;100983.84;685623;28;1019;-89
2022/01/31 00:07:18;;;;;;;12.70;4.63;;;;;;;7.65;48.04;100993.41;685705;28;1033;-91
2022/01/31 00:07:39;;;;;;;12.40;4.72;;;;;;;7.59;47.81;100974.97;683164;29;843;-90
2022/01/31 00:08:00;;;;;;;11.50;4.60;;;;;;;7.67;48.13;100983.97;688213;28;1458;-89
2022/01/31 00:08:21;;;;;;;13.25;5.00;;;;;;;7.63;48.05;100986.38;692490;28;1206;-90
2022/01/31 00:08:42;;;;;;;12.50;5.00;;;;;;;7.62;48.13;100980.28;689506;28;1390;-90
2022/01/31 00:09:03;;;;;;;10.77;5.20;;;;;;;7.60;47.89;100976.72;692815;28;1694;-92
2022/01/31 00:09:25;;;;;;;9.13;5.20;;;;;;;7.66;47.77;100982.19;685965;28;1457;-90
2022/01/31 00:09:45;;;;;;;8.75;5.00;;;;;;;7.63;48.09;100984.63;692635;28;1467;-88
2022/01/31 00:10:10;;;;;;;8.95;4.95;;;;;;;7.64;48.15;100977.75;685491;28;1141;-90
2022/01/31 00:10:31;;;;;;;12.68;5.00;;;;;;;7.65;47.83;100976.91;685678;28;1278;-90
2022/01/31 00:10:53;;;;;;;14.30;4.97;;;;;;;7.64;47.80;100969.97;688194;28;1410;-90
2022/01/31 00:11:13;;;;;;;16.73;5.38;;;;;;;7.68;48.00;100980.53;688013;28;1265;-91
2022/01/31 00:11:41;;;;;;;12.83;5.30;;;;;;;7.67;48.01;100962.28;691099;28;1174;-91
2022/01/31 00:12:07;;;;;;;12.27;4.95;;;;;;;7.68;47.76;100966.69;685468;28;1017;-91
2022/01/31 00:12:32;;;;;;;11.52;4.78;;;;;;;7.65;47.80;100954.44;690883;28;1256;-91
2022/01/31 00:13:06;;;;;;;11.48;4.70;;;;;;;7.67;48.08;100952.78;690928;28;1965;-90
2022/01/31 00:13:35;;;;;;;13.15;4.90;;;;;;;7.65;47.62;100962.25;690528;28;1302;-91
2022/01/31 00:14:03;;;;;;;12.13;4.97;;;;;;;7.66;47.36;100957.91;690191;28;807;-91
2022/01/31 00:15:02;;;;;;;13.00;5.18;;;;;;;7.78;47.78;100944.56;691048;28;859;-90
2022/01/31 00:15:28;;;;;;;11.65;5.15;;;;;;;7.81;47.43;100957.69;686442;28;1317;-89
2022/01/31 00:15:54;;;;;;;12.32;4.60;;;;;;;7.72;47.52;100945.19;691070;28;823;-90
2022/01/31 00:16:20;;;;;;;15.35;4.80;;;;;;;7.73;47.43;100940.91;688689;28;1245;-90
2022/01/31 00:16:41;;;;;;;12.82;5.22;;;;;;;7.78;47.75;100944.56;688364;28;1313;-90
2022/01/31 00:17:03;;;;;;;13.10;5.27;;;;;;;7.75;48.01;100936.66;690870;28;1540;-90
2022/01/31 00:17:23;;;;;;;13.32;5.30;;;;;;;7.67;47.87;100929.41;688603;28;1162;-90
2022/01/31 00:17:44;;;;;;;13.53;5.20;;;;;;;7.72;47.97;100928.72;688227;28;1261;-89
2022/01/31 00:18:04;;;;;;;13.77;4.90;;;;;;;7.84;47.33;100941.34;688104;28;1132;-90
2022/01/31 00:18:25;;;;;;;14.52;5.00;;;;;;;7.77;47.68;100924.59;695754;28;1199;-90
2022/01/31 00:18:45;;;;;;;14.67;4.80;;;;;;;7.80;47.39;100937.75;690621;28;1157;-91
2022/01/31 00:19:15;;;;;;;14.63;5.20;;;;;;;7.83;47.62;100937.84;690030;28;1658;-90
2022/01/31 00:19:37;;;;;;;14.68;5.10;;;;;;;7.71;47.67;100921.75;685253;28;820;-90
2022/01/31 00:19:57;;;;;;;13.80;4.72;;;;;;;7.68;47.81;100923.41;688242;28;1030;-90
2022/01/31 00:20:18;;;;;;;13.05;4.90;;;;;;;7.72;47.73;100929.59;693251;28;1286;-91
2022/01/31 00:20:39;;;;;;;12.00;5.03;;;;;;;7.74;47.62;100940.94;692053;28;799;-90
2022/01/31 00:21:00;;;;;;;11.88;5.07;;;;;;;7.78;47.46;100929.88;685420;28;1615;-90
2022/01/31 00:21:20;;;;;;;12.40;4.82;;;;;;;7.78;47.21;100929.88;692393;28;1243;-90
2022/01/31 00:21:41;;;;;;;13.33;4.60;;;;;;;7.73;47.55;100926.19;685635;28;1139;-89
2022/01/31 00:22:03;;;;;;;14.70;4.93;;;;;;;7.75;47.77;100923.66;688288;28;828;-90
2022/01/31 00:22:24;;;;;;;14.68;5.18;;;;;;;7.78;47.23;100924.69;689723;28;1321;-89
2022/01/31 00:22:45;;;;;;;15.32;5.50;;;;;;;7.79;47.46;100920.34;688248;28;1158;-90
2022/01/31 00:23:05;;;;;;;15.15;5.70;;;;;;;7.82;47.30;100930.88;688100;28;1044;-90
2022/01/31 00:23:26;;;;;;;11.95;5.13;;;;;;;7.75;47.26;100913.25;690837;28;1336;-89
2022/01/31 00:23:46;;;;;;;10.60;5.27;;;;;;;7.73;47.49;100922.72;687999;28;1580;-90
2022/01/31 00:24:07;;;;;;;8.67;5.17;;;;;;;7.78;47.41;100914.28;687903;28;1385;-89
2022/01/31 00:24:27;;;;;;;9.88;5.38;;;;;;;7.75;47.47;100906.34;688407;28;1002;-90
2022/01/31 00:24:49;;;;;;;9.60;5.00;;;;;;;7.75;47.38;100911.53;693672;28;896;-90
2022/01/31 00:25:09;;;;;;;12.32;5.40;;;;;;;7.77;47.13;100901.22;693516;28;1089;-89
2022/01/31 00:25:30;;;;;;;12.93;5.50;;;;;;;7.75;47.26;100892.47;693555;28;1168;-90
2022/01/31 00:25:51;;;;;;;14.63;5.30;;;;;;;7.78;47.09;100901.28;688222;28;1457;-90
2022/01/31 00:26:11;;;;;;;15.43;5.40;;;;;;;7.79;47.45;100907.34;688375;28;1082;-90
2022/01/31 00:26:33;;;;;;;16.45;5.35;;;;;;;7.57;47.57;100888.31;688139;28;1012;-90
2022/01/31 00:26:53;;;;;;;13.25;5.38;;;;;;;7.64;47.50;100895.53;690738;28;1239;-91
2022/01/31 00:27:14;;;;;;;13.13;5.10;;;;;;;7.61;47.50;100886.72;691706;28;1134;-92
2022/01/31 00:27:35;;;;;;;11.73;5.13;;;;;;;7.58;47.50;100882.28;689912;28;1551;-90
2022/01/31 00:28:07;;;;;;;14.13;5.20;;;;;;;7.73;47.63;100888.94;688142;28;1207;-90
2022/01/31 00:28:28;;;;;;;17.35;5.60;;;;;;;7.67;47.14;100880.06;689263;28;1242;-90
2022/01/31 00:28:48;;;;;;;14.30;5.47;;;;;;;7.76;47.51;100899.44;688908;28;1069;-91
2022/01/31 00:29:09;;;;;;;12.93;5.15;;;;;;;7.71;47.53;100880.19;692902;28;1824;-90
2022/01/31 00:29:30;;;;;;;11.07;4.90;;;;;;;7.60;47.76;100877.13;689438;28;1707;-90
2022/01/31 00:29:50;;;;;;;12.40;4.90;;;;;;;7.66;47.32;100878.28;690711;28;1225;-89
2022/01/31 00:30:11;;;;;;;10.52;4.90;;;;;;;7.68;47.41;100880.97;688161;28;1257;-89
2022/01/31 00:30:32;;;;;;;11.13;5.00;;;;;;;7.74;47.47;100895.91;688071;28;1179;-90
2022/01/31 00:30:52;;;;;;;9.60;5.00;;;;;;;7.71;47.29;100886.28;692278;28;1767;-90
2022/01/31 00:31:13;;;;;;;10.57;4.82;;;;;;;7.64;47.55;100877.34;690057;28;1362;-90
2022/01/31 00:31:34;;;;;;;11.93;5.00;;;;;;;7.65;47.44;100880.81;685522;28;1194;-90
2022/01/31 00:31:55;;;;;;;15.30;5.00;;;;;;;7.62;47.82;100868.59;685474;28;1152;-90
2022/01/31 00:32:16;;;;;;;17.13;5.10;;;;;;;7.64;47.80;100879.03;685809;28;1407;-89
2022/01/31 00:32:36;;;;;;;14.33;4.90;;;;;;;7.72;47.87;100892.34;685363;28;1167;-90
2022/01/31 00:32:57;;;;;;;14.13;5.03;;;;;;;7.62;47.52;100871.19;682808;29;1974;-90
2022/01/31 00:33:17;;;;;;;14.15;4.97;;;;;;;7.62;47.55;100871.19;686422;28;1186;-91
2022/01/31 00:33:38;;;;;;;15.77;4.90;;;;;;;7.66;47.83;100872.19;690884;28;1203;-90
2022/01/31 00:33:58;;;;;;;14.50;4.80;;;;;;;7.72;47.39;100875.06;693455;28;1257;-90
2022/01/31 00:34:19;;;;;;;16.27;5.33;;;;;;;7.64;47.49;100864.38;688074;28;1268;-90
2022/01/31 00:34:40;;;;;;;14.95;5.50;;;;;;;7.67;47.74;100863.56;688105;28;1119;-89
2022/01/31 00:35:01;;;;;;;18.50;5.85;;;;;;;7.64;47.54;100848.78;688177;28;838;-89
2022/01/31 00:35:22;;;;;;;14.82;5.20;;;;;;;7.70;47.34;100852.44;690545;28;1149;-89
2022/01/31 00:36:01;;;;;;;13.63;5.13;;;;;;;7.77;47.73;100863.16;690863;28;1141;-89
2022/01/31 00:36:21;;;;;;;8.75;4.70;;;;;;;7.70;47.46;100842.03;692943;28;1024;-90
2022/01/31 00:36:42;;;;;;;11.17;4.77;;;;;;;7.75;47.44;100851.78;688051;28;1222;-90
2022/01/31 00:37:03;;;;;;;13.85;5.15;;;;;;;7.78;47.46;100845.84;687914;28;1119;-90
2022/01/31 00:37:24;;;;;;;16.73;5.22;;;;;;;7.77;46.99;100846.66;687158;28;1402;-89
2022/01/31 00:37:44;;;;;;;14.53;5.10;;;;;;;7.76;47.39;100844.91;690405;28;1650;-89
2022/01/31 00:38:05;;;;;;;12.37;5.27;;;;;;;7.76;47.38;100832.81;685361;28;1205;-89
2022/01/31 00:38:25;;;;;;;14.43;5.55;;;;;;;7.78;47.05;100841.53;687124;28;1399;-89
2022/01/31 00:38:46;;;;;;;16.27;5.90;;;;;;;7.80;47.47;100849.41;687183;28;1538;-91
2022/01/31 00:39:06;;;;;;;17.80;5.60;;;;;;;7.79;47.46;100842.41;682822;29;1441;-90
2022/01/31 00:39:27;;;;;;;16.02;5.63;;;;;;;7.81;47.15;100845.97;682463;28;1373;-89
2022/01/31 00:39:48;;;;;;;13.20;5.20;;;;;;;7.78;46.91;100840.63;685044;28;1294;-90
2022/01/31 00:40:10;;;;;;;13.45;5.38;;;;;;;7.79;47.51;100843.31;690709;28;1180;-90
2022/01/31 00:40:31;;;;;;;12.05;5.47;;;;;;;7.80;47.25;100839.00;690779;28;1233;-90
2022/01/31 00:40:51;;;;;;;12.50;5.60;;;;;;;7.81;47.56;100845.97;690962;28;739;-90
2022/01/31 00:41:12;;;;;;;14.02;5.75;;;;;;;7.75;47.30;100836.19;690687;28;1160;-90
2022/01/31 00:41:32;;;;;;;13.63;5.50;;;;;;;7.79;47.39;100832.00;685489;28;1150;-90
2022/01/31 00:41:53;;;;;;;13.60;5.10;;;;;;;7.78;47.46;100835.44;682844;28;1197;-90
2022/01/31 00:42:13;;;;;;;10.60;4.75;;;;;;;7.83;47.17;100839.13;685568;28;1234;-91
2022/01/31 00:42:35;;;;;;;8.60;4.50;;;;;;;7.77;47.30;100820.69;688241;28;803;-90
2022/01/31 00:42:55;;;;;;;10.75;4.60;;;;;;;7.81;46.99;100830.38;685187;28;1301;-90
2022/01/31 00:43:18;;;;;;;18.17;4.93;;;;;;;7.79;47.45;100821.63;687821;28;1117;-90
2022/01/31 00:43:39;;;;;;;19.10;4.90;;;;;;;7.79;47.22;100824.22;687834;28;1823;-90
2022/01/31 00:44:17;;;;;;;13.85;4.82;;;;;;;7.77;47.26;100820.69;690813;28;799;-90
2022/01/31 00:44:44;;;;;;;10.52;5.40;;;;;;;7.86;46.98;100823.66;688217;28;855;-90
2022/01/31 00:45:30;;;;;;;11.98;5.80;;;;;;;7.83;47.43;100823.53;690527;28;1359;-90
2022/01/31 00:45:59;;;;;;;8.52;5.35;;;;;;;7.85;47.24;100819.28;687573;28;1390;-89
2022/01/31 00:46:26;;;;;;;10.13;5.07;;;;;;;7.76;47.39;100816.31;681480;28;1273;-89
2022/01/31 00:46:59;;;;;;;12.88;5.30;;;;;;;7.79;47.57;100806.03;688075;28;1422;-90
2022/01/31 00:47:25;;;;;;;12.02;5.10;;;;;;;7.84;46.98;100809.72;685262;28;1177;-89
2022/01/31 00:47:50;;;;;;;11.70;5.25;;;;;;;7.90;46.66;100827.25;685471;28;793;-90
2022/01/31 00:48:16;;;;;;;11.18;5.20;;;;;;;7.86;46.88;100813.25;685373;28;1439;-89
2022/01/31 00:48:45;;;;;;;11.65;5.40;;;;;;;7.83;47.20;100810.53;688100;28;1049;-91
2022/01/31 00:49:12;;;;;;;10.10;5.10;;;;;;;7.92;47.17;100823.91;682778;28;1253;-90
2022/01/31 00:50:08;;;;;;;12.57;5.40;;;;;;;7.84;47.18;100812.31;688284;28;1035;-91
2022/01/31 00:50:30;;;;;;;15.65;5.40;;;;;;;7.89;47.24;100813.41;690581;28;1016;-90
2022/01/31 00:50:50;;;;;;;16.65;5.40;;;;;;;7.97;46.88;100823.22;690888;28;1184;-90
2022/01/31 00:51:11;;;;;;;15.37;5.13;;;;;;;7.98;46.81;100817.19;685279;28;1120;-89
2022/01/31 00:51:32;;;;;;;10.85;4.93;;;;;;;7.90;46.84;100802.16;685348;28;1224;-90
2022/01/31 00:51:53;;;;;;;10.07;5.18;;;;;;;7.92;46.88;100815.22;685415;28;801;-91
2022/01/31 00:52:13;;;;;;;9.23;5.05;;;;;;;7.89;47.08;100821.19;685320;28;1243;-91
2022/01/31 00:52:35;;;;;;;9.55;5.13;;;;;;;7.89;46.98;100810.78;687989;28;1604;-90
2022/01/31 00:52:56;;;;;;;9.25;4.90;;;;;;;7.95;47.12;100816.25;683295;28;1923;-90
2022/01/31 00:53:17;;;;;;;12.48;5.10;;;;;;;7.98;47.05;100811.97;686039;28;1356;-90
2022/01/31 00:53:39;;;;;;;11.23;4.95;;;;;;;7.97;47.03;100810.22;682645;28;1284;-89
2022/01/31 00:54:00;;;;;;;11.63;4.82;;;;;;;7.92;46.83;100808.31;687545;28;1429;-88
2022/01/31 00:54:21;;;;;;;9.20;4.47;;;;;;;7.94;47.01;100800.59;690502;28;1207;-89
2022/01/31 00:54:42;;;;;;;11.20;4.53;;;;;;;7.97;46.95;100823.22;690793;28;1102;-90
2022/01/31 00:55:07;;;;;;;9.73;4.57;;;;;;;7.94;47.10;100806.66;685336;28;1304;-89
2022/01/31 00:55:28;;;;;;;9.32;4.60;;;;;;;7.98;46.77;100811.97;684915;28;985;-89
2022/01/31 00:55:49;;;;;;;8.73;4.47;;;;;;;7.96;46.91;100811.91;688270;28;1356;-90
2022/01/31 00:56:16;;;;;;;7.85;4.50;;;;;;;7.99;46.91;100814.63;685115;28;1318;-89
2022/01/31 00:56:37;;;;;;;9.90;4.75;;;;;;;7.97;46.80;100803.28;687603;28;1558;-90
2022/01/31 00:56:58;;;;;;;11.10;4.77;;;;;;;7.98;47.24;100811.97;688095;28;1036;-90
2022/01/31 00:57:18;;;;;;;10.93;4.90;;;;;;;7.97;46.78;100799.81;686401;28;1127;-90
2022/01/31 00:57:42;;;;;;;8.30;4.75;;;;;;;7.99;47.08;100809.41;693563;28;1161;-90
2022/01/31 00:58:03;;;;;;;10.90;5.05;;;;;;;7.85;46.87;100790.69;688050;28;1487;-90
2022/01/31 00:58:24;;;;;;;13.25;5.22;;;;;;;7.85;47.07;100790.69;689738;28;1773;-89
2022/01/31 00:58:44;;;;;;;13.77;5.00;;;;;;;7.87;47.22;100802.03;693458;28;1018;-89
2022/01/31 00:59:05;;;;;;;13.02;4.80;;;;;;;7.91;47.41;100803.94;685185;28;1469;-91
2022/01/31 00:59:25;;;;;;;14.17;4.80;;;;;;;7.93;46.95;100799.69;690434;28;1174;-90
2022/01/31 00:59:50;;;;;;;16.43;5.20;;;;;;;7.94;47.26;100803.19;690362;28;988;-90
2022/01/31 01:00:12;;;;;;;13.63;5.10;;;;;;;7.95;46.96;100800.66;690702;28;1141;-90
2022/01/31 01:00:34;;;;;;;12.15;4.75;;;;;;;7.94;46.90;100791.06;690754;28;1381;-90
2022/01/31 01:00:54;;;;;;;9.90;4.47;;;;;;;7.87;46.78;100786.44;690734;28;1239;-90
2022/01/31 01:01:15;;;;;;;10.07;4.25;;;;;;;7.94;47.16;100803.19;690433;28;1019;-90
2022/01/31 01:01:35;;;;;;;8.53;4.27;;;;;;;7.90;46.93;100794.38;685279;28;1012;-89
2022/01/31 01:01:56;;;;;;;12.27;4.57;;;;;;;7.88;47.16;100783.03;688020;28;1318;-90
2022/01/31 01:02:18;;;;;;;15.55;4.95;;;;;;;7.97;47.10;100794.63;690688;28;1152;-91
2022/01/31 01:02:40;;;;;;;15.43;5.10;;;;;;;7.93;47.10;100772.81;690268;28;1080;-90
2022/01/31 01:03:02;;;;;;;14.00;4.85;;;;;;;7.97;47.14;100789.44;690907;28;834;-90
2022/01/31 01:03:22;;;;;;;13.18;4.90;;;;;;;7.90;47.20;100772.69;692394;28;1201;-90
2022/01/31 01:03:43;;;;;;;12.20;4.70;;;;;;;7.84;47.13;100767.28;690312;28;1509;-90
2022/01/31 01:04:03;;;;;;;10.30;4.78;;;;;;;7.92;46.86;100777.13;690601;28;1309;-90
2022/01/31 01:04:24;;;;;;;9.23;4.87;;;;;;;7.86;47.34;100771.69;690695;28;1268;-91
2022/01/31 01:04:45;;;;;;;8.97;4.90;;;;;;;7.89;46.93;100761.41;688062;28;1038;-89
2022/01/31 01:05:06;;;;;;;8.95;4.93;;;;;;;7.92;47.06;100777.13;688032;28;1128;-89
2022/01/31 01:05:26;;;;;;;11.20;4.75;;;;;;;7.90;47.02;100763.19;687577;28;1159;-90
2022/01/31 01:05:47;;;;;;;12.50;5.10;;;;;;;7.94;47.24;100765.06;690695;28;1236;-90
2022/01/31 01:06:07;;;;;;;12.45;5.00;;;;;;;7.91;47.11;100751.06;695517;28;1278;-91
2022/01/31 01:06:28;;;;;;;12.45;4.90;;;;;;;7.94;47.11;100756.41;693503;28;1308;-91
2022/01/31 01:06:48;;;;;;;13.00;4.60;;;;;;;7.89;47.26;100743.25;688052;28;760;-90
2022/01/31 01:07:09;;;;;;;13.68;4.90;;;;;;;7.89;46.76;100743.25;685276;28;1192;-89
2022/01/31 01:07:30;;;;;;;14.43;5.10;;;;;;;7.95;47.11;100756.47;685534;28;1196;-90
2022/01/31 01:07:51;;;;;;;13.13;4.93;;;;;;;7.92;47.06;100742.47;685380;28;1260;-90
2022/01/31 01:08:12;;;;;;;12.10;5.07;;;;;;;7.93;46.80;100742.50;685187;28;1179;-90
2022/01/31 01:08:42;;;;;;;10.95;5.00;;;;;;;7.89;47.01;100740.63;690419;28;1925;-90
2022/01/31 01:09:02;;;;;;;14.45;4.90;;;;;;;7.91;47.03;100756.25;691544;28;1417;-90
2022/01/31 01:09:23;;;;;;;12.30;4.57;;;;;;;7.91;46.70;100738.97;684200;28;1187;-90
2022/01/31 01:09:46;;;;;;;8.98;4.30;;;;;;;7.93;46.66;100733.84;690270;28;1487;-90
2022/01/31 01:10:07;;;;;;;8.93;4.50;;;;;;;7.98;46.77;100739.22;690643;28;1078;-90
2022/01/31 01:10:28;;;;;;;11.65;4.75;;;;;;;8.00;46.88;100737.56;683001;28;1232;-90
2022/01/31 01:10:50;;;;;;;11.82;4.80;;;;;;;7.99;47.11;100735.78;682548;29;1200;-90
2022/01/31 01:11:10;;;;;;;11.80;4.70;;;;;;;7.92;47.00;100722.56;687905;28;1269;-90
2022/01/31 01:11:31;;;;;;;9.98;4.45;;;;;;;8.00;47.03;100734.97;687663;28;1568;-90
2022/01/31 01:11:51;;;;;;;10.90;4.27;;;;;;;7.91;46.75;100725.97;685760;28;1334;-90
2022/01/31 01:12:15;;;;;;;14.60;4.20;;;;;;;7.94;46.89;100722.63;687466;28;1168;-90
2022/01/31 01:12:37;;;;;;;19.27;4.75;;;;;;;7.94;46.72;100733.00;687987;28;1249;-90
2022/01/31 01:12:57;;;;;;;17.48;4.80;;;;;;;7.96;46.79;100715.75;685259;28;1902;-91
2022/01/31 01:13:18;;;;;;;14.50;4.83;;;;;;;7.97;46.80;100720.13;688837;28;1279;-90
2022/01/31 01:13:39;;;;;;;11.80;4.80;;;;;;;7.94;46.86;100709.63;688124;28;1253;-90
2022/01/31 01:14:08;;;;;;;13.07;4.90;;;;;;;7.89;46.82;100714.66;690390;28;1272;-89
2022/01/31 01:14:29;;;;;;;16.00;4.78;;;;;;;8.01;47.09;100719.44;684719;28;1381;-90
2022/01/31 01:14:50;;;;;;;13.50;4.50;;;;;;;7.97;46.89;100707.13;691693;28;1249;-89
2022/01/31 01:15:12;;;;;;;13.10;4.53;;;;;;;7.91;46.97;100696.50;687862;28;1170;-90
2022/01/31 01:15:32;;;;;;;10.50;4.47;;;;;;;7.97;46.82;100685.47;690514;28;1265;-89
2022/01/31 01:15:53;;;;;;;12.63;4.50;;;;;;;7.96;46.96;100692.38;690704;28;1216;-90
2022/01/31 01:16:14;;;;;;;15.02;4.53;;;;;;;7.97;46.81;100696.75;682908;28;1250;-90
2022/01/31 01:16:34;;;;;;;14.63;4.97;;;;;;;7.99;46.58;100704.59;687482;28;1394;-90
2022/01/31 01:16:56;;;;;;;14.95;5.40;;;;;;;7.95;47.06;100698.41;686908;28;1173;-88
2022/01/31 01:17:17;;;;;;;13.00;5.13;;;;;;;7.91;47.05;100687.00;688504;28;1371;-90
2022/01/31 01:17:38;;;;;;;13.82;5.10;;;;;;;7.94;46.59;100681.91;685337;28;1293;-89
2022/01/31 01:17:58;;;;;;;11.82;4.70;;;;;;;7.95;46.83;100682.81;685005;28;1302;-90
2022/01/31 01:18:19;;;;;;;11.65;4.60;;;;;;;7.95;46.97;100688.91;690377;28;1318;-90
2022/01/31 01:18:40;;;;;;;11.93;4.60;;;;;;;7.95;46.62;100683.72;693516;28;767;-90
2022/01/31 01:19:01;;;;;;;9.65;4.38;;;;;;;7.99;46.56;100694.22;690756;28;818;-90
2022/01/31 01:19:22;;;;;;;9.75;4.28;;;;;;;7.94;46.64;100675.84;690950;28;1156;-90
2022/01/31 01:19:43;;;;;;;8.43;3.70;;;;;;;7.91;47.28;100666.22;684002;28;1277;-90
2022/01/31 01:20:05;;;;;;;12.18;4.70;;;;;;;7.98;47.02;100700.25;687838;28;1461;-90
2022/01/31 01:20:26;;;;;;;13.38;4.95;;;;;;;7.90;46.85;100674.84;698074;28;1212;-90
2022/01/31 01:20:47;;;;;;;15.10;5.13;;;;;;;7.94;46.76;100670.66;693107;28;1503;-91
2022/01/31 01:21:07;;;;;;;12.45;4.50;;;;;;;7.89;46.97;100659.19;687674;28;1663;-91
2022/01/31 01:21:28;;;;;;;10.77;4.13;;;;;;;7.97;47.20;100670.75;687699;28;1167;-90
2022/01/31 01:21:48;;;;;;;9.13;4.30;;;;;;;8.06;46.74;100678.88;688546;28;1666;-90
2022/01/31 01:22:10;;;;;;;10.63;4.40;;;;;;;8.02;46.73;100669.22;687466;28;1174;-90
2022/01/31 01:22:31;;;;;;;9.05;4.40;;;;;;;7.98;46.67;100658.66;685417;28;870;-90
2022/01/31 01:22:52;;;;;;;8.60;4.20;;;;;;;7.93;47.13;100656.75;685281;28;1397;-90
2022/01/31 01:23:13;;;;;;;6.88;3.88;;;;;;;7.98;46.85;100661.25;688544;28;1196;-90
2022/01/31 01:23:33;;;;;;;6.90;3.90;;;;;;;8.00;46.76;100650.09;693487;28;1198;-91
2022/01/31 01:23:55;;;;;;;9.60;4.20;;;;;;;8.04;46.37;100666.69;688938;28;1364;-91
2022/01/31 01:24:15;;;;;;;8.97;4.17;;;;;;;7.99;46.30;100655.22;690512;28;1040;-90
2022/01/31 01:24:37;;;;;;;9.48;4.05;;;;;;;7.98;46.80;100656.06;685143;28;1163;-89
2022/01/31 01:24:59;;;;;;;8.50;3.83;;;;;;;7.98;46.86;100650.88;688025;28;1267;-90
2022/01/31 01:25:19;;;;;;;9.80;3.80;;;;;;;8.05;46.51;100671.06;688948;28;1119;-89
2022/01/31 01:25:40;;;;;;;10.90;3.85;;;;;;;7.99;47.08;100660.44;688228;28;796;-90
2022/01/31 01:26:01;;;;;;;9.85;3.88;;;;;;;7.91;46.90;100648.03;687940;28;1408;-90
2022/01/31 01:26:22;;;;;;;9.50;3.90;;;;;;;7.91;47.08;100666.22;690572;28;1148;-90
2022/01/31 01:26:44;;;;;;;9.13;3.70;;;;;;;7.90;47.26;100658.34;690949;28;1378;-90
2022/01/31 01:27:10;;;;;;;11.60;3.80;;;;;;;8.00;47.07;100660.50;688867;28;1320;-90
2022/01/31 01:27:31;;;;;;;12.02;4.00;;;;;;;7.99;46.68;100660.44;685250;28;1333;-89
2022/01/31 01:27:53;;;;;;;9.80;4.20;;;;;;;8.01;47.45;100645.75;685266;28;1202;-91
2022/01/31 01:28:14;;;;;;;8.27;3.90;;;;;;;7.98;47.16;100650.88;687979;28;1205;-90
2022/01/31 01:28:35;;;;;;;11.40;3.83;;;;;;;7.90;47.26;100641.06;687077;28;1158;-90
2022/01/31 01:28:56;;;;;;;10.15;3.65;;;;;;;7.99;46.88;100637.03;685429;28;827;-91
2022/01/31 01:29:17;;;;;;;11.30;3.70;;;;;;;8.06;46.98;100644.22;685052;28;1017;-90
2022/01/31 01:29:38;;;;;;;13.45;3.88;;;;;;;8.13;46.89;100659.22;690258;28;1299;-90
2022/01/31 01:29:58;;;;;;;17.97;3.93;;;;;;;8.10;46.61;100635.69;687979;28;1133;-89
2022/01/31 01:30:20;;;;;;;14.50;4.00;;;;;;;8.10;46.82;100646.09;684932;28;1401;-88
2022/01/31 01:30:40;;;;;;;11.93;4.00;;;;;;;8.07;47.03;100635.59;684974;28;1204;-90
2022/01/31 01:31:02;;;;;;;8.15;4.10;;;;;;;8.10;46.89;100627.91;685184;28;1456;-91
2022/01/31 01:31:26;;;;;;;9.55;3.90;;;;;;;8.12;46.76;100644.47;690325;28;1583;-90
2022/01/31 01:31:48;;;;;;;10.02;4.80;;;;;;;8.13;46.97;100641.03;688041;28;1288;-89
2022/01/31 01:32:10;;;;;;;10.10;4.95;;;;;;;8.15;46.83;100634.16;685081;28;1244;-90
2022/01/31 01:32:36;;;;;;;8.57;4.43;;;;;;;8.15;46.91;100634.16;690201;28;1433;-90
2022/01/31 01:33:21;;;;;;;8.27;3.60;;;;;;;8.23;46.64;100632.72;688726;28;1328;-89
2022/01/31 01:33:43;;;;;;;9.45;4.00;;;;;;;8.05;46.41;100616.47;688015;28;1313;-88
2022/01/31 01:34:04;;;;;;;9.35;4.20;;;;;;;8.05;46.73;100616.47;687891;28;1191;-89
2022/01/31 01:34:26;;;;;;;10.38;4.38;;;;;;;8.12;46.67;100613.25;685073;28;1168;-89
2022/01/31 01:34:47;;;;;;;9.00;4.00;;;;;;;8.17;46.57;100622.09;687946;28;1236;-90
2022/01/31 01:35:08;;;;;;;9.57;3.83;;;;;;;8.17;46.76;100605.63;690462;28;1155;-90
2022/01/31 01:35:32;;;;;;;10.25;3.88;;;;;;;8.20;46.56;100610.91;687908;28;1398;-89
2022/01/31 01:35:53;;;;;;;9.85;4.10;;;;;;;8.15;46.75;100615.06;688106;28;859;-90
2022/01/31 01:36:15;;;;;;;9.43;3.95;;;;;;;8.21;46.67;100608.38;688561;28;1274;-91
2022/01/31 01:36:38;;;;;;;10.23;3.33;;;;;;;8.20;46.65;100616.13;685024;28;1730;-89
2022/01/31 01:37:00;;;;;;;10.63;3.70;;;;;;;8.27;46.47;100606.81;687869;28;1251;-90
2022/01/31 01:37:21;;;;;;;12.82;4.10;;;;;;;8.19;46.80;100596.16;687905;28;1060;-90
2022/01/31 01:37:41;;;;;;;13.50;4.40;;;;;;;8.25;46.56;100598.97;693593;28;760;-90
2022/01/31 01:38:07;;;;;;;12.63;4.10;;;;;;;8.14;46.56;100596.00;687849;28;1070;-90
2022/01/31 01:38:29;;;;;;;9.95;4.00;;;;;;;8.18;46.32;100590.06;683035;28;1312;-91
2022/01/31 01:38:51;;;;;;;9.45;4.00;;;;;;;8.16;46.86;100589.13;687961;28;1332;-90
2022/01/31 01:39:12;;;;;;;9.10;3.80;;;;;;;8.16;46.90;100583.94;690449;28;1220;-90
2022/01/31 01:39:33;;;;;;;9.85;3.70;;;;;;;8.19;46.91;100591.84;687520;28;838;-90
2022/01/31 01:39:54;;;;;;;8.32;3.50;;;;;;;8.17;46.61;100575.31;687531;28;1203;-90
2022/01/31 01:40:30;;;;;;;10.88;3.80;;;;;;;8.18;46.90;100574.47;684829;28;1275;-90
2022/01/31 01:40:51;;;;;;;13.82;4.00;;;;;;;8.18;46.52;100582.25;685404;28;1292;-90
2022/01/31 01:41:13;;;;;;;12.82;4.05;;;;;;;8.16;46.89;100580.47;690478;28;1232;-91
2022/01/31 01:41:33;;;;;;;8.88;3.70;;;;;;;8.15;47.21;100570.88;690563;28;1662;-90
2022/01/31 01:41:54;;;;;;;7.90;3.80;;;;;;;8.15;47.07;100573.47;688013;28;827;-91
2022/01/31 01:42:16;;;;;;;6.15;3.53;;;;;;;8.15;46.67;100566.56;686512;28;1020;-90
2022/01/31 01:42:36;;;;;;;6.35;3.63;;;;;;;8.18;47.11;100569.25;683181;28;1468;-90
2022/01/31 01:42:57;;;;;;;10.32;3.83;;;;;;;8.20;46.70;100583.22;688308;28;1325;-90
2022/01/31 01:43:18;;;;;;;11.90;3.90;;;;;;;8.22;46.91;100599.75;691798;28;1358;-89
2022/01/31 01:43:39;;;;;;;12.13;3.80;;;;;;;8.21;46.63;100571.09;690793;28;772;-90
2022/01/31 01:43:59;;;;;;;7.53;3.33;;;;;;;8.21;46.90;100572.00;687818;28;1161;-90
2022/01/31 01:44:57;;;;;;;8.20;3.60;;;;;;;8.16;46.83;100560.53;690507;28;1240;-90
2022/01/31 01:45:22;;;;;;;11.23;3.80;;;;;;;8.20;46.79;100564.13;693291;28;1079;-89
2022/01/31 01:45:43;;;;;;;7.78;3.50;;;;;;;8.20;46.81;100566.72;687890;28;1382;-89
2022/01/31 01:46:06;;;;;;;7.88;3.30;;;;;;;8.20;46.72;100575.44;685799;28;1715;-89
2022/01/31 01:46:28;;;;;;;9.50;3.60;;;;;;;8.16;47.17;100560.53;687989;28;1374;-89
2022/01/31 01:46:49;;;;;;;10.15;4.03;;;;;;;8.15;46.96;100561.38;687914;28;1052;-90
2022/01/31 01:47:10;;;;;;;9.87;4.13;;;;;;;8.14;47.05;100544.00;684967;28;1238;-89